sensor_id;sensor_type;location;lat;lon;timestamp;P1;durP1;ratioP1;P2;durP2;ratioP2
8708;SDS011;4391;48.678;9.280;2023-02-20T00:02:13;5.38;;;1.63;;
8708;SDS011;4391;48.678;9.280;2023-02-20T00:04:41;7.97;;;1.80;;
8708;SDS011;4391;48.678;9.280;2023-02-20T00:07:08;9.75;;;1.70;;
8708;SDS011;4391;48.678;9.280;2023-02-20T00:09:35;7.27;;;1.67;;
8708;SDS011;4391;48.678;9.280;2023-02-20T00:12:02;4.65;;;1.60;;
8708;SDS011;4391;48.678;9.280;2023-02-20T00:14:29;6.32;;;1.95;;
8708;SDS011;4391;48.678;9.280;2023-02-20T00:16:56;7.68;;;1.98;;
8708;SDS011;4391;48.678;9.280;2023-02-20T00:19:23;9.20;;;2.22;;
8708;SDS011;4391;48.678;9.280;2023-02-20T00:21:51;6.40;;;1.70;;
8708;SDS011;4391;48.678;9.280;2023-02-20T00:24:18;5.70;;;2.22;;
8708;SDS011;4391;48.678;9.280;2023-02-20T00:26:45;9.13;;;1.98;;
8708;SDS011;4391;48.678;9.280;2023-02-20T00:29:13;5.60;;;2.03;;
8708;SDS011;4391;48.678;9.280;2023-02-20T00:31:41;7.05;;;2.20;;
8708;SDS011;4391;48.678;9.280;2023-02-20T00:34:08;5.97;;;1.87;;
8708;SDS011;4391;48.678;9.280;2023-02-20T00:36:35;7.28;;;2.13;;
8708;SDS011;4391;48.678;9.280;2023-02-20T00:39:03;7.57;;;2.15;;
8708;SDS011;4391;48.678;9.280;2023-02-20T00:41:29;6.35;;;1.95;;
8708;SDS011;4391;48.678;9.280;2023-02-20T00:43:56;7.43;;;2.38;;
8708;SDS011;4391;48.678;9.280;2023-02-20T00:46:29;8.53;;;2.23;;
8708;SDS011;4391;48.678;9.280;2023-02-20T00:48:56;5.45;;;1.77;;
8708;SDS011;4391;48.678;9.280;2023-02-20T00:51:23;7.13;;;2.20;;
8708;SDS011;4391;48.678;9.280;2023-02-20T00:53:50;7.22;;;1.90;;
8708;SDS011;4391;48.678;9.280;2023-02-20T00:56:18;6.00;;;2.42;;
8708;SDS011;4391;48.678;9.280;2023-02-20T00:58:45;7.97;;;1.80;;
8708;SDS011;4391;48.678;9.280;2023-02-20T01:01:12;6.72;;;1.90;;
8708;SDS011;4391;48.678;9.280;2023-02-20T01:03:40;6.78;;;1.77;;
8708;SDS011;4391;48.678;9.280;2023-02-20T01:06:07;7.93;;;2.05;;
8708;SDS011;4391;48.678;9.280;2023-02-20T01:08:34;7.68;;;2.00;;
8708;SDS011;4391;48.678;9.280;2023-02-20T01:11:01;5.93;;;2.00;;
8708;SDS011;4391;48.678;9.280;2023-02-20T01:13:29;6.80;;;1.67;;
8708;SDS011;4391;48.678;9.280;2023-02-20T01:15:56;8.20;;;2.30;;
8708;SDS011;4391;48.678;9.280;2023-02-20T01:18:23;6.55;;;2.10;;
8708;SDS011;4391;48.678;9.280;2023-02-20T01:20:50;5.40;;;1.90;;
8708;SDS011;4391;48.678;9.280;2023-02-20T01:23:17;8.73;;;2.20;;
8708;SDS011;4391;48.678;9.280;2023-02-20T01:25:44;4.82;;;1.45;;
8708;SDS011;4391;48.678;9.280;2023-02-20T01:28:11;6.85;;;2.30;;
8708;SDS011;4391;48.678;9.280;2023-02-20T01:30:39;5.05;;;1.67;;
8708;SDS011;4391;48.678;9.280;2023-02-20T01:33:05;6.38;;;1.65;;
8708;SDS011;4391;48.678;9.280;2023-02-20T01:35:32;6.20;;;1.80;;
8708;SDS011;4391;48.678;9.280;2023-02-20T01:37:59;5.03;;;1.75;;
8708;SDS011;4391;48.678;9.280;2023-02-20T01:40:30;7.40;;;1.65;;
8708;SDS011;4391;48.678;9.280;2023-02-20T01:42:58;9.18;;;1.58;;
8708;SDS011;4391;48.678;9.280;2023-02-20T01:45:30;5.75;;;1.70;;
8708;SDS011;4391;48.678;9.280;2023-02-20T01:48:00;7.20;;;1.77;;
8708;SDS011;4391;48.678;9.280;2023-02-20T01:50:28;8.23;;;2.30;;
8708;SDS011;4391;48.678;9.280;2023-02-20T01:53:00;8.90;;;2.10;;
8708;SDS011;4391;48.678;9.280;2023-02-20T01:55:31;6.25;;;1.92;;
8708;SDS011;4391;48.678;9.280;2023-02-20T01:58:04;7.07;;;1.80;;
8708;SDS011;4391;48.678;9.280;2023-02-20T02:00:34;5.43;;;1.70;;
8708;SDS011;4391;48.678;9.280;2023-02-20T02:03:04;5.50;;;1.60;;
8708;SDS011;4391;48.678;9.280;2023-02-20T02:05:33;4.32;;;1.90;;
8708;SDS011;4391;48.678;9.280;2023-02-20T02:08:02;5.38;;;1.75;;
8708;SDS011;4391;48.678;9.280;2023-02-20T02:10:32;7.60;;;1.85;;
8708;SDS011;4391;48.678;9.280;2023-02-20T02:13:04;5.57;;;1.63;;
8708;SDS011;4391;48.678;9.280;2023-02-20T02:15:32;8.38;;;2.03;;
8708;SDS011;4391;48.678;9.280;2023-02-20T02:18:02;6.53;;;1.90;;
8708;SDS011;4391;48.678;9.280;2023-02-20T02:20:57;7.10;;;1.70;;
8708;SDS011;4391;48.678;9.280;2023-02-20T02:24:07;7.15;;;2.05;;
8708;SDS011;4391;48.678;9.280;2023-02-20T02:27:10;6.77;;;1.77;;
8708;SDS011;4391;48.678;9.280;2023-02-20T02:33:20;6.53;;;1.80;;
8708;SDS011;4391;48.678;9.280;2023-02-20T02:36:25;5.68;;;1.73;;
8708;SDS011;4391;48.678;9.280;2023-02-20T02:39:15;9.88;;;1.83;;
8708;SDS011;4391;48.678;9.280;2023-02-20T02:41:52;6.50;;;1.43;;
8708;SDS011;4391;48.678;9.280;2023-02-20T02:44:22;6.30;;;1.70;;
8708;SDS011;4391;48.678;9.280;2023-02-20T02:46:56;6.78;;;1.90;;
8708;SDS011;4391;48.678;9.280;2023-02-20T02:49:28;8.23;;;1.80;;
8708;SDS011;4391;48.678;9.280;2023-02-20T02:52:03;6.40;;;1.77;;
8708;SDS011;4391;48.678;9.280;2023-02-20T02:54:31;5.77;;;1.87;;
8708;SDS011;4391;48.678;9.280;2023-02-20T02:57:15;11.95;;;1.90;;
8708;SDS011;4391;48.678;9.280;2023-02-20T02:59:52;7.28;;;1.50;;
8708;SDS011;4391;48.678;9.280;2023-02-20T03:02:22;5.97;;;1.90;;
8708;SDS011;4391;48.678;9.280;2023-02-20T03:04:50;5.40;;;1.65;;
8708;SDS011;4391;48.678;9.280;2023-02-20T03:07:21;9.70;;;1.87;;
8708;SDS011;4391;48.678;9.280;2023-02-20T03:09:50;6.80;;;1.75;;
8708;SDS011;4391;48.678;9.280;2023-02-20T03:12:19;6.57;;;2.28;;
8708;SDS011;4391;48.678;9.280;2023-02-20T03:14:49;10.05;;;2.80;;
8708;SDS011;4391;48.678;9.280;2023-02-20T03:17:41;8.25;;;2.03;;
8708;SDS011;4391;48.678;9.280;2023-02-20T03:20:12;4.53;;;1.70;;
8708;SDS011;4391;48.678;9.280;2023-02-20T03:22:43;7.05;;;1.75;;
8708;SDS011;4391;48.678;9.280;2023-02-20T03:25:16;9.82;;;1.95;;
8708;SDS011;4391;48.678;9.280;2023-02-20T03:27:49;8.93;;;2.10;;
8708;SDS011;4391;48.678;9.280;2023-02-20T03:30:20;8.68;;;1.98;;
8708;SDS011;4391;48.678;9.280;2023-02-20T03:32:50;5.17;;;1.53;;
8708;SDS011;4391;48.678;9.280;2023-02-20T03:35:38;3.83;;;1.40;;
8708;SDS011;4391;48.678;9.280;2023-02-20T03:38:27;6.40;;;1.83;;
8708;SDS011;4391;48.678;9.280;2023-02-20T03:41:13;7.95;;;2.20;;
8708;SDS011;4391;48.678;9.280;2023-02-20T03:44:00;6.25;;;1.90;;
8708;SDS011;4391;48.678;9.280;2023-02-20T03:46:31;7.80;;;2.10;;
8708;SDS011;4391;48.678;9.280;2023-02-20T03:49:02;10.40;;;1.92;;
8708;SDS011;4391;48.678;9.280;2023-02-20T03:51:31;5.20;;;1.77;;
8708;SDS011;4391;48.678;9.280;2023-02-20T03:53:59;8.35;;;1.92;;
8708;SDS011;4391;48.678;9.280;2023-02-20T03:56:27;7.65;;;1.75;;
8708;SDS011;4391;48.678;9.280;2023-02-20T03:58:57;5.63;;;2.40;;
8708;SDS011;4391;48.678;9.280;2023-02-20T04:01:27;9.10;;;2.35;;
8708;SDS011;4391;48.678;9.280;2023-02-20T04:03:55;7.72;;;2.13;;
8708;SDS011;4391;48.678;9.280;2023-02-20T04:06:24;7.43;;;2.08;;
8708;SDS011;4391;48.678;9.280;2023-02-20T04:08:55;7.82;;;2.15;;
8708;SDS011;4391;48.678;9.280;2023-02-20T04:11:28;8.33;;;2.17;;
8708;SDS011;4391;48.678;9.280;2023-02-20T04:13:58;6.60;;;1.92;;
8708;SDS011;4391;48.678;9.280;2023-02-20T04:16:26;7.45;;;2.03;;
8708;SDS011;4391;48.678;9.280;2023-02-20T04:18:53;6.97;;;2.25;;
8708;SDS011;4391;48.678;9.280;2023-02-20T04:21:22;8.18;;;2.33;;
8708;SDS011;4391;48.678;9.280;2023-02-20T04:23:56;7.90;;;2.17;;
8708;SDS011;4391;48.678;9.280;2023-02-20T04:26:30;7.47;;;1.67;;
8708;SDS011;4391;48.678;9.280;2023-02-20T04:28:58;8.27;;;2.10;;
8708;SDS011;4391;48.678;9.280;2023-02-20T04:31:24;9.32;;;2.10;;
8708;SDS011;4391;48.678;9.280;2023-02-20T04:33:52;6.28;;;2.20;;
8708;SDS011;4391;48.678;9.280;2023-02-20T04:36:19;6.13;;;2.23;;
8708;SDS011;4391;48.678;9.280;2023-02-20T04:38:46;5.45;;;1.70;;
8708;SDS011;4391;48.678;9.280;2023-02-20T04:41:14;6.55;;;2.40;;
8708;SDS011;4391;48.678;9.280;2023-02-20T04:43:41;8.73;;;2.35;;
8708;SDS011;4391;48.678;9.280;2023-02-20T04:46:08;9.60;;;2.00;;
8708;SDS011;4391;48.678;9.280;2023-02-20T04:48:35;7.47;;;1.70;;
8708;SDS011;4391;48.678;9.280;2023-02-20T04:51:02;11.05;;;2.33;;
8708;SDS011;4391;48.678;9.280;2023-02-20T04:53:29;9.02;;;2.38;;
8708;SDS011;4391;48.678;9.280;2023-02-20T04:55:56;8.25;;;1.63;;
8708;SDS011;4391;48.678;9.280;2023-02-20T04:58:24;7.07;;;2.03;;
8708;SDS011;4391;48.678;9.280;2023-02-20T05:00:51;8.70;;;2.37;;
8708;SDS011;4391;48.678;9.280;2023-02-20T05:03:17;8.80;;;2.45;;
8708;SDS011;4391;48.678;9.280;2023-02-20T05:05:44;7.20;;;1.85;;
8708;SDS011;4391;48.678;9.280;2023-02-20T05:08:11;6.90;;;1.95;;
8708;SDS011;4391;48.678;9.280;2023-02-20T05:10:38;8.43;;;2.33;;
8708;SDS011;4391;48.678;9.280;2023-02-20T05:13:05;5.53;;;2.13;;
8708;SDS011;4391;48.678;9.280;2023-02-20T05:15:33;11.27;;;2.40;;
8708;SDS011;4391;48.678;9.280;2023-02-20T05:18:00;9.70;;;2.58;;
8708;SDS011;4391;48.678;9.280;2023-02-20T05:20:27;6.30;;;2.10;;
8708;SDS011;4391;48.678;9.280;2023-02-20T05:23:07;6.47;;;2.38;;
8708;SDS011;4391;48.678;9.280;2023-02-20T05:25:34;11.87;;;2.27;;
8708;SDS011;4391;48.678;9.280;2023-02-20T05:28:01;7.50;;;2.38;;
8708;SDS011;4391;48.678;9.280;2023-02-20T05:30:28;8.73;;;2.33;;
8708;SDS011;4391;48.678;9.280;2023-02-20T05:32:56;12.88;;;2.40;;
8708;SDS011;4391;48.678;9.280;2023-02-20T05:35:23;7.85;;;2.33;;
8708;SDS011;4391;48.678;9.280;2023-02-20T05:37:50;10.67;;;2.50;;
8708;SDS011;4391;48.678;9.280;2023-02-20T05:40:16;8.27;;;2.17;;
8708;SDS011;4391;48.678;9.280;2023-02-20T05:42:43;6.75;;;2.50;;
8708;SDS011;4391;48.678;9.280;2023-02-20T05:45:10;8.02;;;2.15;;
8708;SDS011;4391;48.678;9.280;2023-02-20T05:47:37;8.30;;;2.20;;
8708;SDS011;4391;48.678;9.280;2023-02-20T05:50:05;7.93;;;2.50;;
8708;SDS011;4391;48.678;9.280;2023-02-20T05:52:32;7.60;;;2.45;;
8708;SDS011;4391;48.678;9.280;2023-02-20T05:54:59;9.98;;;2.58;;
8708;SDS011;4391;48.678;9.280;2023-02-20T05:57:26;6.70;;;2.03;;
8708;SDS011;4391;48.678;9.280;2023-02-20T05:59:53;11.18;;;2.47;;
8708;SDS011;4391;48.678;9.280;2023-02-20T06:02:20;7.97;;;2.30;;
8708;SDS011;4391;48.678;9.280;2023-02-20T06:04:47;9.52;;;2.33;;
8708;SDS011;4391;48.678;9.280;2023-02-20T06:07:15;11.02;;;2.47;;
8708;SDS011;4391;48.678;9.280;2023-02-20T06:09:42;10.55;;;2.50;;
8708;SDS011;4391;48.678;9.280;2023-02-20T06:12:09;7.55;;;2.45;;
8708;SDS011;4391;48.678;9.280;2023-02-20T06:14:36;8.87;;;2.30;;
8708;SDS011;4391;48.678;9.280;2023-02-20T06:17:05;7.75;;;1.98;;
8708;SDS011;4391;48.678;9.280;2023-02-20T06:19:33;7.68;;;2.40;;
8708;SDS011;4391;48.678;9.280;2023-02-20T06:21:59;11.52;;;2.40;;
8708;SDS011;4391;48.678;9.280;2023-02-20T06:24:28;8.77;;;2.50;;
8708;SDS011;4391;48.678;9.280;2023-02-20T06:26:55;6.43;;;2.40;;
8708;SDS011;4391;48.678;9.280;2023-02-20T06:29:22;8.35;;;2.58;;
8708;SDS011;4391;48.678;9.280;2023-02-20T06:31:49;8.50;;;2.60;;
8708;SDS011;4391;48.678;9.280;2023-02-20T06:34:16;9.73;;;2.30;;
8708;SDS011;4391;48.678;9.280;2023-02-20T06:36:43;5.97;;;2.17;;
8708;SDS011;4391;48.678;9.280;2023-02-20T06:39:11;8.47;;;2.30;;
8708;SDS011;4391;48.678;9.280;2023-02-20T06:41:40;6.70;;;2.50;;
8708;SDS011;4391;48.678;9.280;2023-02-20T06:44:08;9.55;;;2.45;;
8708;SDS011;4391;48.678;9.280;2023-02-20T06:46:35;6.93;;;1.85;;
8708;SDS011;4391;48.678;9.280;2023-02-20T06:49:02;5.93;;;2.15;;
8708;SDS011;4391;48.678;9.280;2023-02-20T06:51:30;6.83;;;2.20;;
8708;SDS011;4391;48.678;9.280;2023-02-20T06:53:58;8.13;;;2.58;;
8708;SDS011;4391;48.678;9.280;2023-02-20T06:56:27;10.13;;;2.88;;
8708;SDS011;4391;48.678;9.280;2023-02-20T06:58:57;6.80;;;2.22;;
8708;SDS011;4391;48.678;9.280;2023-02-20T07:01:26;5.85;;;1.85;;
8708;SDS011;4391;48.678;9.280;2023-02-20T07:03:55;11.83;;;2.40;;
8708;SDS011;4391;48.678;9.280;2023-02-20T07:06:23;10.07;;;2.03;;
8708;SDS011;4391;48.678;9.280;2023-02-20T07:08:50;6.90;;;1.80;;
8708;SDS011;4391;48.678;9.280;2023-02-20T07:11:18;7.20;;;2.22;;
8708;SDS011;4391;48.678;9.280;2023-02-20T07:13:47;9.98;;;2.00;;
8708;SDS011;4391;48.678;9.280;2023-02-20T07:16:15;7.87;;;2.23;;
8708;SDS011;4391;48.678;9.280;2023-02-20T07:18:42;10.43;;;2.50;;
8708;SDS011;4391;48.678;9.280;2023-02-20T07:21:09;7.07;;;2.55;;
8708;SDS011;4391;48.678;9.280;2023-02-20T07:23:36;6.70;;;2.22;;
8708;SDS011;4391;48.678;9.280;2023-02-20T07:26:02;8.65;;;2.60;;
8708;SDS011;4391;48.678;9.280;2023-02-20T07:28:29;10.43;;;2.10;;
8708;SDS011;4391;48.678;9.280;2023-02-20T07:30:59;8.93;;;2.13;;
8708;SDS011;4391;48.678;9.280;2023-02-20T07:33:28;7.15;;;2.28;;
8708;SDS011;4391;48.678;9.280;2023-02-20T07:35:54;6.18;;;2.00;;
8708;SDS011;4391;48.678;9.280;2023-02-20T07:38:21;9.93;;;2.10;;
8708;SDS011;4391;48.678;9.280;2023-02-20T07:40:54;7.97;;;2.17;;
8708;SDS011;4391;48.678;9.280;2023-02-20T07:43:21;9.25;;;2.00;;
8708;SDS011;4391;48.678;9.280;2023-02-20T07:48:14;4.93;;;1.80;;
8708;SDS011;4391;48.678;9.280;2023-02-20T07:50:43;5.47;;;1.95;;
8708;SDS011;4391;48.678;9.280;2023-02-20T07:53:12;9.67;;;1.87;;
8708;SDS011;4391;48.678;9.280;2023-02-20T07:55:40;6.50;;;2.10;;
8708;SDS011;4391;48.678;9.280;2023-02-20T07:58:07;8.57;;;2.40;;
8708;SDS011;4391;48.678;9.280;2023-02-20T08:00:34;8.45;;;2.00;;
8708;SDS011;4391;48.678;9.280;2023-02-20T08:03:01;7.93;;;1.70;;
8708;SDS011;4391;48.678;9.280;2023-02-20T08:05:28;7.90;;;2.23;;
8708;SDS011;4391;48.678;9.280;2023-02-20T08:07:56;6.25;;;1.58;;
8708;SDS011;4391;48.678;9.280;2023-02-20T08:10:24;8.35;;;2.15;;
8708;SDS011;4391;48.678;9.280;2023-02-20T08:12:52;8.95;;;1.92;;
8708;SDS011;4391;48.678;9.280;2023-02-20T08:15:20;7.88;;;1.95;;
8708;SDS011;4391;48.678;9.280;2023-02-20T08:17:47;6.20;;;1.90;;
8708;SDS011;4391;48.678;9.280;2023-02-20T08:20:15;7.13;;;1.80;;
8708;SDS011;4391;48.678;9.280;2023-02-20T08:22:43;6.40;;;1.63;;
8708;SDS011;4391;48.678;9.280;2023-02-20T08:25:11;9.32;;;1.80;;
8708;SDS011;4391;48.678;9.280;2023-02-20T08:27:40;6.35;;;1.73;;
8708;SDS011;4391;48.678;9.280;2023-02-20T08:30:09;6.40;;;1.90;;
8708;SDS011;4391;48.678;9.280;2023-02-20T08:32:37;7.28;;;1.58;;
8708;SDS011;4391;48.678;9.280;2023-02-20T08:35:04;5.43;;;2.03;;
8708;SDS011;4391;48.678;9.280;2023-02-20T08:37:31;5.82;;;1.80;;
8708;SDS011;4391;48.678;9.280;2023-02-20T08:39:57;7.05;;;1.80;;
8708;SDS011;4391;48.678;9.280;2023-02-20T08:42:26;6.30;;;2.00;;
8708;SDS011;4391;48.678;9.280;2023-02-20T08:44:52;6.38;;;1.70;;
8708;SDS011;4391;48.678;9.280;2023-02-20T08:47:19;9.30;;;2.40;;
8708;SDS011;4391;48.678;9.280;2023-02-20T08:49:47;8.77;;;2.53;;
8708;SDS011;4391;48.678;9.280;2023-02-20T08:52:14;6.40;;;1.80;;
8708;SDS011;4391;48.678;9.280;2023-02-20T08:54:43;7.20;;;2.00;;
8708;SDS011;4391;48.678;9.280;2023-02-20T08:57:10;6.35;;;1.33;;
8708;SDS011;4391;48.678;9.280;2023-02-20T08:59:38;6.95;;;2.08;;
8708;SDS011;4391;48.678;9.280;2023-02-20T09:02:06;4.30;;;1.25;;
8708;SDS011;4391;48.678;9.280;2023-02-20T09:04:34;6.63;;;1.85;;
8708;SDS011;4391;48.678;9.280;2023-02-20T09:07:00;5.93;;;1.47;;
8708;SDS011;4391;48.678;9.280;2023-02-20T09:09:27;5.00;;;1.38;;
8708;SDS011;4391;48.678;9.280;2023-02-20T09:11:55;4.43;;;1.50;;
8708;SDS011;4391;48.678;9.280;2023-02-20T09:14:21;5.25;;;1.83;;
8708;SDS011;4391;48.678;9.280;2023-02-20T09:16:51;9.85;;;1.77;;
8708;SDS011;4391;48.678;9.280;2023-02-20T09:19:18;6.63;;;1.70;;
8708;SDS011;4391;48.678;9.280;2023-02-20T09:21:48;7.85;;;1.58;;
8708;SDS011;4391;48.678;9.280;2023-02-20T09:24:14;5.93;;;1.52;;
8708;SDS011;4391;48.678;9.280;2023-02-20T09:26:42;8.30;;;1.70;;
8708;SDS011;4391;48.678;9.280;2023-02-20T09:29:09;7.07;;;1.90;;
8708;SDS011;4391;48.678;9.280;2023-02-20T09:31:35;5.90;;;1.47;;
8708;SDS011;4391;48.678;9.280;2023-02-20T09:34:04;5.80;;;1.35;;
8708;SDS011;4391;48.678;9.280;2023-02-20T09:36:30;7.18;;;1.73;;
8708;SDS011;4391;48.678;9.280;2023-02-20T09:38:57;5.57;;;1.40;;
8708;SDS011;4391;48.678;9.280;2023-02-20T09:41:27;4.63;;;1.27;;
8708;SDS011;4391;48.678;9.280;2023-02-20T09:44:02;4.67;;;1.20;;
8708;SDS011;4391;48.678;9.280;2023-02-20T09:46:37;6.28;;;1.00;;
8708;SDS011;4391;48.678;9.280;2023-02-20T09:49:08;5.22;;;1.52;;
8708;SDS011;4391;48.678;9.280;2023-02-20T09:51:43;5.72;;;1.50;;
8708;SDS011;4391;48.678;9.280;2023-02-20T09:54:15;6.95;;;1.67;;
8708;SDS011;4391;48.678;9.280;2023-02-20T09:56:48;6.70;;;1.20;;
8708;SDS011;4391;48.678;9.280;2023-02-20T09:59:17;7.18;;;1.38;;
8708;SDS011;4391;48.678;9.280;2023-02-20T10:01:50;4.22;;;1.33;;
8708;SDS011;4391;48.678;9.280;2023-02-20T10:04:23;9.30;;;1.20;;
8708;SDS011;4391;48.678;9.280;2023-02-20T10:06:52;11.05;;;1.42;;
8708;SDS011;4391;48.678;9.280;2023-02-20T10:09:22;6.23;;;1.50;;
8708;SDS011;4391;48.678;9.280;2023-02-20T10:11:53;5.63;;;1.45;;
8708;SDS011;4391;48.678;9.280;2023-02-20T10:14:35;5.60;;;1.40;;
8708;SDS011;4391;48.678;9.280;2023-02-20T10:17:14;3.50;;;1.00;;
8708;SDS011;4391;48.678;9.280;2023-02-20T10:19:51;4.43;;;1.30;;
8708;SDS011;4391;48.678;9.280;2023-02-20T10:22:22;6.10;;;1.20;;
8708;SDS011;4391;48.678;9.280;2023-02-20T10:24:58;8.75;;;1.10;;
8708;SDS011;4391;48.678;9.280;2023-02-20T10:27:35;5.78;;;1.40;;
8708;SDS011;4391;48.678;9.280;2023-02-20T10:30:09;4.82;;;1.52;;
8708;SDS011;4391;48.678;9.280;2023-02-20T10:32:39;3.47;;;1.05;;
8708;SDS011;4391;48.678;9.280;2023-02-20T10:35:10;4.90;;;1.07;;
8708;SDS011;4391;48.678;9.280;2023-02-20T10:37:41;6.47;;;1.17;;
8708;SDS011;4391;48.678;9.280;2023-02-20T10:40:13;4.63;;;0.98;;
8708;SDS011;4391;48.678;9.280;2023-02-20T10:42:46;6.40;;;1.10;;
8708;SDS011;4391;48.678;9.280;2023-02-20T10:45:21;7.63;;;1.20;;
8708;SDS011;4391;48.678;9.280;2023-02-20T10:47:53;4.33;;;1.20;;
8708;SDS011;4391;48.678;9.280;2023-02-20T10:50:30;4.10;;;0.93;;
8708;SDS011;4391;48.678;9.280;2023-02-20T10:53:02;4.22;;;1.10;;
8708;SDS011;4391;48.678;9.280;2023-02-20T10:55:37;4.47;;;1.00;;
8708;SDS011;4391;48.678;9.280;2023-02-20T10:58:07;4.05;;;1.20;;
8708;SDS011;4391;48.678;9.280;2023-02-20T11:00:39;3.33;;;0.80;;
8708;SDS011;4391;48.678;9.280;2023-02-20T11:03:11;5.40;;;0.80;;
8708;SDS011;4391;48.678;9.280;2023-02-20T11:05:45;2.75;;;0.80;;
8708;SDS011;4391;48.678;9.280;2023-02-20T11:08:17;5.55;;;0.80;;
8708;SDS011;4391;48.678;9.280;2023-02-20T11:10:45;5.72;;;1.25;;
8708;SDS011;4391;48.678;9.280;2023-02-20T11:13:14;6.40;;;1.60;;
8708;SDS011;4391;48.678;9.280;2023-02-20T11:15:43;4.25;;;0.85;;
8708;SDS011;4391;48.678;9.280;2023-02-20T11:18:16;5.45;;;1.13;;
8708;SDS011;4391;48.678;9.280;2023-02-20T11:20:51;2.85;;;0.73;;
8708;SDS011;4391;48.678;9.280;2023-02-20T11:23:34;3.83;;;0.80;;
8708;SDS011;4391;48.678;9.280;2023-02-20T11:26:14;4.17;;;0.80;;
8708;SDS011;4391;48.678;9.280;2023-02-20T11:29:00;3.33;;;0.73;;
8708;SDS011;4391;48.678;9.280;2023-02-20T11:31:30;4.13;;;0.93;;
8708;SDS011;4391;48.678;9.280;2023-02-20T11:33:59;4.38;;;1.15;;
8708;SDS011;4391;48.678;9.280;2023-02-20T11:36:31;3.28;;;0.70;;
8708;SDS011;4391;48.678;9.280;2023-02-20T11:39:03;4.57;;;1.07;;
8708;SDS011;4391;48.678;9.280;2023-02-20T11:41:42;5.82;;;1.02;;
8708;SDS011;4391;48.678;9.280;2023-02-20T11:44:18;3.53;;;0.90;;
8708;SDS011;4391;48.678;9.280;2023-02-20T11:49:34;5.35;;;1.00;;
8708;SDS011;4391;48.678;9.280;2023-02-20T11:52:07;4.27;;;1.00;;
8708;SDS011;4391;48.678;9.280;2023-02-20T11:54:40;4.80;;;0.80;;
8708;SDS011;4391;48.678;9.280;2023-02-20T11:57:17;7.53;;;0.93;;
8708;SDS011;4391;48.678;9.280;2023-02-20T11:59:51;5.30;;;0.98;;
8708;SDS011;4391;48.678;9.280;2023-02-20T12:02:34;4.38;;;1.20;;
8708;SDS011;4391;48.678;9.280;2023-02-20T12:05:05;4.03;;;0.98;;
8708;SDS011;4391;48.678;9.280;2023-02-20T12:07:38;4.23;;;0.77;;
8708;SDS011;4391;48.678;9.280;2023-02-20T12:10:24;3.42;;;0.80;;
8708;SDS011;4391;48.678;9.280;2023-02-20T12:13:01;4.85;;;0.90;;
8708;SDS011;4391;48.678;9.280;2023-02-20T12:15:29;6.10;;;0.98;;
8708;SDS011;4391;48.678;9.280;2023-02-20T12:21:04;3.30;;;0.70;;
8708;SDS011;4391;48.678;9.280;2023-02-20T12:23:42;3.47;;;0.90;;
8708;SDS011;4391;48.678;9.280;2023-02-20T12:26:19;7.07;;;0.90;;
8708;SDS011;4391;48.678;9.280;2023-02-20T12:28:58;3.67;;;0.70;;
8708;SDS011;4391;48.678;9.280;2023-02-20T12:31:34;7.80;;;1.27;;
8708;SDS011;4391;48.678;9.280;2023-02-20T12:34:17;4.77;;;1.00;;
8708;SDS011;4391;48.678;9.280;2023-02-20T12:36:54;3.77;;;0.70;;
8708;SDS011;4391;48.678;9.280;2023-02-20T12:39:29;4.45;;;0.90;;
8708;SDS011;4391;48.678;9.280;2023-02-20T12:42:06;2.90;;;0.80;;
8708;SDS011;4391;48.678;9.280;2023-02-20T12:44:49;3.50;;;0.80;;
8708;SDS011;4391;48.678;9.280;2023-02-20T12:47:36;2.85;;;0.70;;
8708;SDS011;4391;48.678;9.280;2023-02-20T12:50:23;4.83;;;1.10;;
8708;SDS011;4391;48.678;9.280;2023-02-20T12:53:08;5.27;;;1.57;;
8708;SDS011;4391;48.678;9.280;2023-02-20T12:55:47;5.10;;;0.95;;
8708;SDS011;4391;48.678;9.280;2023-02-20T12:58:25;3.97;;;0.80;;
8708;SDS011;4391;48.678;9.280;2023-02-20T13:01:00;2.42;;;0.60;;
8708;SDS011;4391;48.678;9.280;2023-02-20T13:03:38;2.58;;;0.60;;
8708;SDS011;4391;48.678;9.280;2023-02-20T13:06:13;7.93;;;1.40;;
8708;SDS011;4391;48.678;9.280;2023-02-20T13:08:51;4.70;;;0.70;;
8708;SDS011;4391;48.678;9.280;2023-02-20T13:11:25;3.05;;;0.60;;
8708;SDS011;4391;48.678;9.280;2023-02-20T13:14:01;2.63;;;0.60;;
8708;SDS011;4391;48.678;9.280;2023-02-20T13:16:43;4.03;;;0.70;;
8708;SDS011;4391;48.678;9.280;2023-02-20T13:19:14;4.20;;;0.50;;
8708;SDS011;4391;48.678;9.280;2023-02-20T13:21:47;4.83;;;0.70;;
8708;SDS011;4391;48.678;9.280;2023-02-20T13:24:30;4.88;;;0.77;;
8708;SDS011;4391;48.678;9.280;2023-02-20T13:27:01;3.35;;;0.60;;
8708;SDS011;4391;48.678;9.280;2023-02-20T13:29:35;2.42;;;0.60;;
8708;SDS011;4391;48.678;9.280;2023-02-20T13:32:24;1.52;;;0.30;;
8708;SDS011;4391;48.678;9.280;2023-02-20T13:38:44;4.20;;;0.50;;
8708;SDS011;4391;48.678;9.280;2023-02-20T13:41:58;4.77;;;0.60;;
8708;SDS011;4391;48.678;9.280;2023-02-20T13:44:36;3.03;;;0.50;;
8708;SDS011;4391;48.678;9.280;2023-02-20T13:50:00;1.95;;;0.65;;
8708;SDS011;4391;48.678;9.280;2023-02-20T13:52:30;3.42;;;0.50;;
8708;SDS011;4391;48.678;9.280;2023-02-20T13:55:04;2.95;;;0.50;;
8708;SDS011;4391;48.678;9.280;2023-02-20T13:57:44;5.43;;;0.70;;
8708;SDS011;4391;48.678;9.280;2023-02-20T14:00:20;2.73;;;0.70;;
8708;SDS011;4391;48.678;9.280;2023-02-20T14:02:53;2.55;;;0.60;;
8708;SDS011;4391;48.678;9.280;2023-02-20T14:05:22;4.88;;;0.80;;
8708;SDS011;4391;48.678;9.280;2023-02-20T14:07:50;3.03;;;0.73;;
8708;SDS011;4391;48.678;9.280;2023-02-20T14:10:18;3.13;;;0.70;;
8708;SDS011;4391;48.678;9.280;2023-02-20T14:12:56;4.90;;;0.67;;
8708;SDS011;4391;48.678;9.280;2023-02-20T14:15:25;3.23;;;0.50;;
8708;SDS011;4391;48.678;9.280;2023-02-20T14:17:53;2.08;;;0.50;;
8708;SDS011;4391;48.678;9.280;2023-02-20T14:20:22;2.90;;;0.57;;
8708;SDS011;4391;48.678;9.280;2023-02-20T14:23:07;3.13;;;0.50;;
8708;SDS011;4391;48.678;9.280;2023-02-20T14:25:35;4.00;;;1.15;;
8708;SDS011;4391;48.678;9.280;2023-02-20T14:28:09;1.60;;;0.43;;
8708;SDS011;4391;48.678;9.280;2023-02-20T14:30:38;3.78;;;0.60;;
8708;SDS011;4391;48.678;9.280;2023-02-20T14:33:14;4.65;;;0.60;;
8708;SDS011;4391;48.678;9.280;2023-02-20T14:35:54;3.47;;;0.77;;
8708;SDS011;4391;48.678;9.280;2023-02-20T14:38:32;2.67;;;0.60;;
8708;SDS011;4391;48.678;9.280;2023-02-20T14:41:16;5.47;;;0.60;;
8708;SDS011;4391;48.678;9.280;2023-02-20T14:43:45;3.10;;;0.60;;
8708;SDS011;4391;48.678;9.280;2023-02-20T14:46:21;2.38;;;0.65;;
8708;SDS011;4391;48.678;9.280;2023-02-20T14:48:49;1.80;;;0.57;;
8708;SDS011;4391;48.678;9.280;2023-02-20T14:51:32;2.75;;;0.40;;
8708;SDS011;4391;48.678;9.280;2023-02-20T14:54:01;4.18;;;0.77;;
8708;SDS011;4391;48.678;9.280;2023-02-20T14:56:35;3.63;;;0.50;;
8708;SDS011;4391;48.678;9.280;2023-02-20T14:59:15;5.03;;;0.80;;
8708;SDS011;4391;48.678;9.280;2023-02-20T15:01:53;3.22;;;0.50;;
8708;SDS011;4391;48.678;9.280;2023-02-20T15:04:22;2.00;;;0.40;;
8708;SDS011;4391;48.678;9.280;2023-02-20T15:06:50;5.38;;;0.65;;
8708;SDS011;4391;48.678;9.280;2023-02-20T15:09:18;2.20;;;0.57;;
8708;SDS011;4391;48.678;9.280;2023-02-20T15:11:47;2.03;;;0.50;;
8708;SDS011;4391;48.678;9.280;2023-02-20T15:14:17;4.18;;;0.50;;
8708;SDS011;4391;48.678;9.280;2023-02-20T15:16:46;5.43;;;0.68;;
8708;SDS011;4391;48.678;9.280;2023-02-20T15:19:20;3.00;;;0.70;;
8708;SDS011;4391;48.678;9.280;2023-02-20T15:21:58;4.07;;;0.60;;
8708;SDS011;4391;48.678;9.280;2023-02-20T15:24:26;2.87;;;0.53;;
8708;SDS011;4391;48.678;9.280;2023-02-20T15:27:09;4.07;;;0.90;;
8708;SDS011;4391;48.678;9.280;2023-02-20T15:29:40;4.50;;;0.60;;
8708;SDS011;4391;48.678;9.280;2023-02-20T15:32:14;1.83;;;0.50;;
8708;SDS011;4391;48.678;9.280;2023-02-20T15:34:47;1.75;;;0.60;;
8708;SDS011;4391;48.678;9.280;2023-02-20T15:37:17;1.33;;;0.50;;
8708;SDS011;4391;48.678;9.280;2023-02-20T15:39:47;2.03;;;0.60;;
8708;SDS011;4391;48.678;9.280;2023-02-20T15:42:15;2.58;;;0.55;;
8708;SDS011;4391;48.678;9.280;2023-02-20T15:44:45;1.05;;;0.40;;
8708;SDS011;4391;48.678;9.280;2023-02-20T15:47:12;2.60;;;0.50;;
8708;SDS011;4391;48.678;9.280;2023-02-20T15:49:39;2.08;;;0.77;;
8708;SDS011;4391;48.678;9.280;2023-02-20T15:52:06;2.23;;;0.67;;
8708;SDS011;4391;48.678;9.280;2023-02-20T15:54:44;2.90;;;0.70;;
8708;SDS011;4391;48.678;9.280;2023-02-20T15:57:15;4.45;;;0.75;;
8708;SDS011;4391;48.678;9.280;2023-02-20T15:59:42;2.78;;;0.80;;